createdAt,value
2022-10-25T00:01:43.953Z,88.47
2022-10-25T00:04:06.921Z,88.42
2022-10-25T00:06:29.560Z,88.41
2022-10-25T00:08:52.260Z,88.28
2022-10-25T00:11:26.871Z,88.21
2022-10-25T00:13:51.723Z,88.16
2022-10-25T00:16:17.032Z,88.03
2022-10-25T00:18:39.689Z,88.35
2022-10-25T00:21:04.691Z,88.37
2022-10-25T00:23:27.334Z,88.78
2022-10-25T00:25:50.079Z,88.32
2022-10-25T00:28:12.631Z,88.40
2022-10-25T00:30:35.217Z,88.60
2022-10-25T00:32:58.373Z,88.39
2022-10-25T00:35:20.993Z,88.44
2022-10-25T00:40:07.886Z,88.19
2022-10-25T00:42:30.465Z,88.60
2022-10-25T00:45:01.968Z,88.51
2022-10-25T00:47:38.819Z,88.25
2022-10-25T00:50:28.828Z,88.29
2022-10-25T00:52:55.858Z,88.45
2022-10-25T00:55:21.128Z,88.18
2022-10-25T00:57:49.193Z,89.02
2022-10-25T01:00:12.759Z,89.31
2022-10-25T01:02:35.499Z,89.58
2022-10-25T01:04:58.527Z,89.61
2022-10-25T01:07:21.166Z,89.78
2022-10-25T01:09:43.921Z,90.38
2022-10-25T01:12:06.511Z,90.36
2022-10-25T01:14:36.410Z,90.30
2022-10-25T01:17:29.977Z,90.09
2022-10-25T01:20:46.539Z,90.07
2022-10-25T01:23:27.968Z,90.01
2022-10-25T01:26:13.924Z,89.68
2022-10-25T01:29:01.049Z,89.85
2022-10-25T01:31:47.488Z,90.08
2022-10-25T01:34:48.239Z,90.26
2022-10-25T01:37:25.783Z,90.23
2022-10-25T01:40:03.084Z,90.13
2022-10-25T01:42:51.560Z,90.34
2022-10-25T01:45:28.475Z,91.19
2022-10-25T01:47:59.432Z,91.53
2022-10-25T01:50:28.091Z,91.76
2022-10-25T01:52:50.700Z,92.27
2022-10-25T01:55:14.828Z,92.52
2022-10-25T01:57:49.361Z,92.88
2022-10-25T02:00:18.047Z,92.93
2022-10-25T02:02:49.573Z,93.09
2022-10-25T02:05:35.838Z,93.46
2022-10-25T02:08:36.099Z,93.11
2022-10-25T02:11:24.826Z,93.14
2022-10-25T02:14:05.759Z,93.49
2022-10-25T02:16:32.256Z,93.21
2022-10-25T02:19:02.415Z,93.43
2022-10-25T02:21:27.959Z,94.08
2022-10-25T02:23:51.968Z,93.98
2022-10-25T02:26:16.725Z,93.87
2022-10-25T02:28:41.082Z,93.92
2022-10-25T02:31:05.904Z,93.69
2022-10-25T02:33:28.475Z,93.50
2022-10-25T02:36:13.036Z,93.44
2022-10-25T02:38:36.442Z,93.85
2022-10-25T02:41:00.294Z,93.81
2022-10-25T02:43:23.022Z,93.93
2022-10-25T02:45:45.619Z,94.04
2022-10-25T02:48:08.185Z,93.96
2022-10-25T02:50:30.719Z,94.02
2022-10-25T02:52:53.242Z,94.35
2022-10-25T02:55:15.758Z,94.27
2022-10-25T02:57:38.314Z,94.05
2022-10-25T03:00:01.043Z,94.00
2022-10-25T03:02:23.843Z,94.11
2022-10-25T03:04:46.427Z,93.91
2022-10-25T03:07:09.057Z,93.95
2022-10-25T03:09:31.673Z,93.95
2022-10-25T03:11:54.218Z,93.70
2022-10-25T03:14:16.669Z,93.75
2022-10-25T03:16:39.472Z,93.71
2022-10-25T03:19:02.160Z,93.79
2022-10-25T03:21:25.374Z,93.88
2022-10-25T03:23:47.883Z,94.07
2022-10-25T03:26:10.466Z,94.16
2022-10-25T03:28:33.152Z,93.96
2022-10-25T03:30:56.962Z,93.78
2022-10-25T03:33:19.877Z,93.72
2022-10-25T03:35:42.624Z,93.72
2022-10-25T03:38:05.504Z,93.61
2022-10-25T03:40:28.448Z,93.78
2022-10-25T03:42:50.993Z,93.59
2022-10-25T03:45:13.603Z,93.20
2022-10-25T03:47:36.130Z,93.18
2022-10-25T03:49:58.673Z,93.29
2022-10-25T03:52:21.303Z,93.51
2022-10-25T03:54:43.931Z,93.03
2022-10-25T03:57:06.510Z,92.84
2022-10-25T03:59:29.270Z,92.55
2022-10-25T04:01:51.818Z,92.67
2022-10-25T04:04:14.484Z,92.55
2022-10-25T04:06:36.984Z,92.20
2022-10-25T04:08:59.585Z,91.86
2022-10-25T04:11:22.035Z,91.63
2022-10-25T04:13:44.548Z,91.70
2022-10-25T04:16:08.687Z,91.66
2022-10-25T04:18:31.544Z,91.51
2022-10-25T04:20:54.024Z,91.58
2022-10-25T04:23:16.669Z,91.65
2022-10-25T04:25:39.221Z,91.45
2022-10-25T04:28:01.722Z,91.34
2022-10-25T04:30:24.524Z,91.37
2022-10-25T04:32:47.542Z,91.39
2022-10-25T04:35:10.820Z,91.45
2022-10-25T04:37:33.325Z,91.25
2022-10-25T04:39:55.829Z,91.28
2022-10-25T04:42:19.504Z,91.22
2022-10-25T04:44:42.162Z,91.38
2022-10-25T04:47:04.704Z,91.57
2022-10-25T04:49:27.291Z,91.51
2022-10-25T04:54:17.397Z,91.51
2022-10-25T04:56:39.915Z,91.32
2022-10-25T04:59:02.404Z,91.09
2022-10-25T05:01:25.950Z,91.09
2022-10-25T05:03:49.380Z,91.06
2022-10-25T05:06:19.758Z,91.07
2022-10-25T05:08:44.550Z,91.02
2022-10-25T05:11:08.825Z,90.87
2022-10-25T05:13:33.509Z,90.59
2022-10-25T05:15:56.958Z,90.88
2022-10-25T05:18:19.586Z,91.28
2022-10-25T05:20:42.322Z,91.30
2022-10-25T05:23:04.889Z,91.48
2022-10-25T05:25:27.592Z,91.54
2022-10-25T05:27:50.756Z,91.57
2022-10-25T05:30:13.784Z,91.70
2022-10-25T05:32:37.936Z,91.58
2022-10-25T05:35:00.599Z,91.55
2022-10-25T05:37:23.223Z,91.34
2022-10-25T05:39:46.040Z,91.32
2022-10-25T05:42:08.630Z,91.28
2022-10-25T05:44:31.172Z,91.35
2022-10-25T05:46:55.354Z,91.25
2022-10-25T05:49:18.077Z,91.19
2022-10-25T05:51:40.910Z,90.95
2022-10-25T05:54:10.181Z,90.86
2022-10-25T05:56:34.106Z,90.61
2022-10-25T05:58:58.043Z,90.53
2022-10-25T06:01:22.214Z,90.31
2022-10-25T06:03:48.220Z,90.41
2022-10-25T06:06:12.288Z,90.54
2022-10-25T06:08:35.480Z,90.56
2022-10-25T06:11:03.008Z,90.37
2022-10-25T06:13:25.612Z,90.04
2022-10-25T06:15:48.153Z,89.83
2022-10-25T06:18:10.859Z,90.12
2022-10-25T06:20:33.633Z,90.08
2022-10-25T06:22:56.368Z,89.98
2022-10-25T06:25:18.958Z,89.62
2022-10-25T06:27:41.752Z,89.25
2022-10-25T06:30:04.755Z,89.06
2022-10-25T06:32:28.476Z,88.81
2022-10-25T06:34:51.551Z,88.52
2022-10-25T06:37:15.580Z,88.05
2022-10-25T06:39:38.311Z,87.23
2022-10-25T06:42:01.377Z,86.99
2022-10-25T06:44:25.939Z,86.68
2022-10-25T06:47:18.543Z,86.38
2022-10-25T06:49:31.898Z,85.76
2022-10-25T06:51:54.961Z,85.55
2022-10-25T06:54:18.428Z,85.70
2022-10-25T06:56:41.134Z,85.12
2022-10-25T06:59:06.993Z,84.90
2022-10-25T07:01:29.874Z,84.68
2022-10-25T07:03:54.590Z,84.11
2022-10-25T07:06:19.510Z,83.70
2022-10-25T07:08:44.672Z,83.54
2022-10-25T07:11:12.707Z,83.29
2022-10-25T07:13:35.451Z,82.58
2022-10-25T07:16:05.808Z,82.48
2022-10-25T07:18:28.913Z,82.39
2022-10-25T07:20:51.641Z,81.88
2022-10-25T07:23:16.202Z,81.75
2022-10-25T07:25:38.791Z,81.84
2022-10-25T07:28:01.407Z,82.00
2022-10-25T07:30:24.103Z,81.90
2022-10-25T07:32:46.795Z,82.28
2022-10-25T07:35:09.752Z,82.18
2022-10-25T07:37:32.370Z,81.99
2022-10-25T07:39:55.025Z,81.91
2022-10-25T07:42:17.714Z,81.79
2022-10-25T07:44:40.278Z,81.72
2022-10-25T07:47:02.934Z,81.89
2022-10-25T07:49:25.712Z,82.00
2022-10-25T07:51:48.520Z,82.08
2022-10-25T07:54:11.372Z,82.49
2022-10-25T07:56:34.036Z,81.25
2022-10-25T07:58:57.083Z,80.77
2022-10-25T08:01:22.893Z,80.41
2022-10-25T08:03:45.622Z,80.40
2022-10-25T08:06:08.188Z,80.00
2022-10-25T08:08:31.359Z,80.12
2022-10-25T08:10:54.665Z,80.39
2022-10-25T08:13:17.503Z,79.91
2022-10-25T08:15:41.018Z,79.67
2022-10-25T08:18:04.994Z,79.22
2022-10-25T08:20:43.340Z,78.94
2022-10-25T08:23:11.500Z,78.65
2022-10-25T08:25:34.184Z,78.98
2022-10-25T08:27:56.917Z,78.38
2022-10-25T08:30:19.755Z,78.50
2022-10-25T08:32:42.370Z,78.73
2022-10-25T08:35:05.232Z,78.82
2022-10-25T08:37:28.142Z,79.28
2022-10-25T08:39:53.506Z,79.21
2022-10-25T08:43:00.700Z,78.42
2022-10-25T08:45:32.815Z,78.12
2022-10-25T08:47:58.103Z,77.88
2022-10-25T08:50:24.413Z,78.22
2022-10-25T08:52:53.708Z,77.64
2022-10-25T08:55:32.875Z,77.64
2022-10-25T08:57:56.393Z,77.20
2022-10-25T09:00:22.612Z,77.69
2022-10-25T09:02:54.158Z,77.81
2022-10-25T09:05:36.913Z,77.99
2022-10-25T09:08:20.125Z,77.64
2022-10-25T09:10:50.148Z,77.20
2022-10-25T09:13:31.016Z,76.39
2022-10-25T09:16:06.462Z,76.47
2022-10-25T09:18:42.717Z,75.94
2022-10-25T09:21:22.253Z,75.93
2022-10-25T09:23:57.112Z,74.92
2022-10-25T09:26:31.343Z,74.58
2022-10-25T09:29:02.598Z,74.82
2022-10-25T09:31:25.980Z,74.96
2022-10-25T09:33:50.633Z,74.70
2022-10-25T09:36:15.006Z,74.34
2022-10-25T09:38:47.464Z,74.80
2022-10-25T09:41:25.388Z,75.62
2022-10-25T09:43:57.606Z,76.68
2022-10-25T09:46:33.277Z,75.88
2022-10-25T09:49:02.779Z,75.46
2022-10-25T09:51:26.566Z,75.55
2022-10-25T09:53:49.870Z,75.50
2022-10-25T09:56:12.876Z,75.04
2022-10-25T09:58:40.198Z,75.14
2022-10-25T10:01:15.539Z,75.39
2022-10-25T10:03:43.102Z,74.95
2022-10-25T10:06:26.250Z,75.73
2022-10-25T10:09:04.388Z,75.16
2022-10-25T10:11:28.264Z,75.30
2022-10-25T10:14:12.038Z,75.15
2022-10-25T10:16:53.647Z,74.74
2022-10-25T10:19:23.404Z,75.14
2022-10-25T10:21:51.158Z,75.56
2022-10-25T10:24:21.137Z,75.44
2022-10-25T10:26:47.543Z,75.36
2022-10-25T10:29:22.781Z,75.13
2022-10-25T10:31:50.794Z,74.24
2022-10-25T10:34:42.737Z,74.20
2022-10-25T10:37:20.793Z,74.46
2022-10-25T10:40:13.699Z,73.99
2022-10-25T10:42:42.859Z,73.34
2022-10-25T10:45:13.167Z,73.12
2022-10-25T10:47:39.144Z,73.19
2022-10-25T10:50:11.149Z,72.53
2022-10-25T10:52:42.521Z,72.24
2022-10-25T10:55:08.271Z,72.65
2022-10-25T10:57:36.123Z,71.71
2022-10-25T11:00:00.375Z,71.68
2022-10-25T11:02:38.151Z,71.24
2022-10-25T11:05:01.890Z,70.52
2022-10-25T11:07:35.587Z,70.02
2022-10-25T11:10:19.561Z,70.41
2022-10-25T11:12:43.270Z,69.58
2022-10-25T11:15:13.303Z,69.71
2022-10-25T11:17:41.021Z,70.00
2022-10-25T11:20:27.900Z,69.82
2022-10-25T11:23:05.198Z,69.83
2022-10-25T11:25:38.687Z,69.38
2022-10-25T11:28:28.223Z,70.00
2022-10-25T11:31:09.676Z,70.08
2022-10-25T11:34:15.461Z,70.02
2022-10-25T11:37:04.980Z,70.54
2022-10-25T11:40:10.639Z,70.98
2022-10-25T11:42:50.037Z,70.71
2022-10-25T11:45:33.078Z,71.14
2022-10-25T11:48:33.810Z,71.61
2022-10-25T11:51:02.829Z,71.76
2022-10-25T11:53:36.451Z,71.36
2022-10-25T11:56:13.219Z,70.71
2022-10-25T11:59:06.159Z,69.64
2022-10-25T12:01:46.842Z,69.35
2022-10-25T12:04:41.507Z,67.96
2022-10-25T12:07:22.772Z,68.26
2022-10-25T12:10:05.481Z,65.57
2022-10-25T12:12:43.541Z,65.93
2022-10-25T12:15:12.473Z,64.93
2022-10-25T12:17:35.586Z,64.89
2022-10-25T12:20:05.509Z,64.17
2022-10-25T12:22:38.040Z,64.22
2022-10-25T12:25:05.310Z,64.86
2022-10-25T12:27:29.812Z,64.61
2022-10-25T12:30:07.433Z,64.11
2022-10-25T12:32:38.941Z,64.23
2022-10-25T12:35:05.755Z,64.29
2022-10-25T12:37:40.155Z,63.89
2022-10-25T12:40:04.664Z,64.05
2022-10-25T12:42:27.963Z,64.34
2022-10-25T12:45:03.196Z,64.81
2022-10-25T12:47:44.135Z,63.53
2022-10-25T12:50:28.359Z,63.56
2022-10-25T12:53:04.459Z,63.81
2022-10-25T12:55:42.296Z,64.38
2022-10-25T12:58:38.622Z,64.38
2022-10-25T13:01:13.929Z,64.27
2022-10-25T13:03:51.375Z,64.81
2022-10-25T13:06:31.308Z,65.11
2022-10-25T13:08:59.908Z,64.86
2022-10-25T13:11:33.294Z,65.02
2022-10-25T13:13:56.324Z,64.55
2022-10-25T13:16:30.867Z,65.01
2022-10-25T13:22:39.336Z,65.59
2022-10-25T13:25:05.862Z,65.71
2022-10-25T13:27:31.078Z,65.31
2022-10-25T13:30:11.343Z,65.73
2022-10-25T13:32:39.400Z,65.60
2022-10-25T13:35:03.930Z,65.51
2022-10-25T13:37:32.898Z,65.34
2022-10-25T13:39:57.791Z,65.26
2022-10-25T13:42:36.697Z,64.80
2022-10-25T13:45:09.345Z,64.23
2022-10-25T13:47:44.108Z,65.32
2022-10-25T13:50:33.308Z,64.35
2022-10-25T13:53:21.094Z,64.81
2022-10-25T13:55:56.049Z,62.45
2022-10-25T13:58:32.010Z,61.72
2022-10-25T14:01:18.643Z,62.27
2022-10-25T14:04:02.914Z,61.90
2022-10-25T14:06:36.915Z,62.61
2022-10-25T14:09:11.670Z,62.12
2022-10-25T14:11:54.469Z,62.59
2022-10-25T14:14:28.852Z,62.07
2022-10-25T14:17:03.777Z,62.16
2022-10-25T14:19:38.008Z,60.82
2022-10-25T14:22:02.847Z,61.50
2022-10-25T14:24:25.385Z,62.37
2022-10-25T14:26:55.114Z,62.53
2022-10-25T14:29:21.992Z,62.93
2022-10-25T14:31:45.303Z,63.05
2022-10-25T14:34:18.992Z,63.06
2022-10-25T14:36:41.750Z,62.84
2022-10-25T14:39:16.493Z,63.09
2022-10-25T14:41:39.528Z,63.33
2022-10-25T14:44:02.776Z,63.44
2022-10-25T14:46:28.096Z,63.46
2022-10-25T14:48:56.244Z,64.07
2022-10-25T14:51:24.375Z,64.25
2022-10-25T14:53:57.942Z,64.49
2022-10-25T14:56:24.890Z,64.67
2022-10-25T14:58:47.865Z,65.10
2022-10-25T15:01:14.831Z,65.55
2022-10-25T15:03:43.345Z,65.84
2022-10-25T15:06:06.229Z,65.91
2022-10-25T15:08:29.125Z,65.98
2022-10-25T15:11:04.335Z,66.20
2022-10-25T15:13:38.406Z,66.41
2022-10-25T15:16:04.205Z,66.72
2022-10-25T15:18:26.688Z,66.71
2022-10-25T15:20:50.367Z,66.94
2022-10-25T15:23:21.709Z,66.88
2022-10-25T15:25:44.211Z,67.27
2022-10-25T15:28:15.099Z,67.19
2022-10-25T15:30:41.542Z,66.84
2022-10-25T15:33:08.610Z,67.53
2022-10-25T15:35:33.408Z,68.05
2022-10-25T15:37:56.874Z,68.04
2022-10-25T15:40:20.024Z,68.42
2022-10-25T15:42:42.567Z,67.90
2022-10-25T15:45:06.008Z,68.10
2022-10-25T15:47:34.223Z,68.13
2022-10-25T15:49:57.769Z,68.33
2022-10-25T15:52:21.045Z,68.87
2022-10-25T15:54:44.032Z,68.97
2022-10-25T15:57:06.768Z,69.43
2022-10-25T15:59:29.392Z,69.41
2022-10-25T16:01:53.607Z,70.35
2022-10-25T16:04:18.966Z,70.52
2022-10-25T16:06:42.711Z,70.61
2022-10-25T16:09:05.297Z,71.11
2022-10-25T16:11:28.363Z,71.56
2022-10-25T16:13:52.970Z,72.07
2022-10-25T16:16:43.308Z,72.56
2022-10-25T16:19:05.916Z,72.96
2022-10-25T16:21:28.448Z,73.17
2022-10-25T16:23:51.126Z,73.48
2022-10-25T16:26:35.440Z,73.82
2022-10-25T16:29:14.751Z,73.99
2022-10-25T16:31:37.502Z,74.10
2022-10-25T16:34:00.052Z,74.42
2022-10-25T16:36:22.655Z,74.21
2022-10-25T16:38:45.261Z,74.51
2022-10-25T16:41:23.218Z,74.73
2022-10-25T16:43:49.134Z,74.43
2022-10-25T16:46:11.921Z,74.39
2022-10-25T16:48:36.532Z,74.94
2022-10-25T16:50:59.119Z,74.51
2022-10-25T16:53:21.741Z,73.91
2022-10-25T16:55:44.431Z,74.08
2022-10-25T16:58:07.243Z,74.22
2022-10-25T17:00:33.008Z,74.49
2022-10-25T17:02:56.261Z,74.80
2022-10-25T17:05:25.636Z,75.07
2022-10-25T17:07:49.379Z,75.96
2022-10-25T17:10:14.323Z,75.91
2022-10-25T17:12:46.782Z,75.91
2022-10-25T17:15:09.945Z,77.10
2022-10-25T17:17:32.534Z,77.57
2022-10-25T17:19:55.145Z,78.27
2022-10-25T17:22:17.965Z,78.66
2022-10-25T17:25:02.198Z,78.69
2022-10-25T17:27:26.004Z,78.79
2022-10-25T17:29:48.808Z,78.86
2022-10-25T17:32:11.547Z,78.88
2022-10-25T17:34:34.082Z,78.93
2022-10-25T17:36:56.649Z,78.94
2022-10-25T17:39:19.185Z,78.83
2022-10-25T17:41:42.010Z,79.20
2022-10-25T17:44:04.690Z,78.80
2022-10-25T17:46:29.496Z,78.53
2022-10-25T17:49:03.259Z,78.77
2022-10-25T17:51:26.128Z,79.10
2022-10-25T17:53:55.356Z,79.54
2022-10-25T17:56:19.407Z,79.42
2022-10-25T17:58:43.673Z,79.71
2022-10-25T18:01:06.491Z,79.99
2022-10-25T18:03:31.440Z,79.92
2022-10-25T18:05:54.096Z,79.91
2022-10-25T18:08:16.773Z,80.16
2022-10-25T18:10:39.850Z,80.19
2022-10-25T18:13:03.672Z,80.12
2022-10-25T18:15:27.324Z,79.89
2022-10-25T18:17:50.317Z,78.83
2022-10-25T18:20:13.537Z,78.77
2022-10-25T18:22:36.096Z,79.08
2022-10-25T18:24:58.884Z,79.11
2022-10-25T18:27:21.659Z,80.09
2022-10-25T18:29:44.647Z,80.82
2022-10-25T18:32:07.446Z,81.41
2022-10-25T18:34:30.379Z,81.77
2022-10-25T18:36:53.566Z,81.86
2022-10-25T18:39:16.388Z,82.05
2022-10-25T18:41:40.886Z,82.21
2022-10-25T18:44:04.035Z,81.94
2022-10-25T18:46:30.749Z,81.22
2022-10-25T18:48:55.715Z,81.36
2022-10-25T18:51:20.570Z,81.85
2022-10-25T18:53:43.400Z,82.14
2022-10-25T18:56:19.554Z,82.21
2022-10-25T18:58:45.520Z,82.11
2022-10-25T19:01:17.009Z,81.57
2022-10-25T19:03:40.842Z,81.50
2022-10-25T19:06:04.753Z,81.79
2022-10-25T19:08:28.594Z,81.93
2022-10-25T19:10:51.698Z,81.95
2022-10-25T19:13:19.322Z,82.08
2022-10-25T19:15:42.162Z,82.42
2022-10-25T19:18:05.215Z,82.65
2022-10-25T19:20:28.049Z,82.61
2022-10-25T19:22:50.759Z,82.70
2022-10-25T19:25:13.504Z,82.89
2022-10-25T19:27:36.341Z,82.97
2022-10-25T19:29:59.184Z,83.08
2022-10-25T19:32:22.085Z,82.99
2022-10-25T19:34:44.926Z,83.22
2022-10-25T19:37:08.934Z,83.18
2022-10-25T19:39:31.844Z,83.25
2022-10-25T19:41:54.607Z,83.62
2022-10-25T19:44:17.336Z,83.72
2022-10-25T19:46:40.194Z,83.60
2022-10-25T19:49:04.137Z,83.50
2022-10-25T19:51:27.147Z,83.50
2022-10-25T19:53:49.970Z,83.56
2022-10-25T19:56:15.550Z,83.66
2022-10-25T19:58:38.626Z,83.32
2022-10-25T20:01:08.106Z,83.25
2022-10-25T20:03:31.219Z,83.24
2022-10-25T20:05:58.980Z,83.34
2022-10-25T20:08:21.451Z,83.39
2022-10-25T20:10:44.151Z,83.45
2022-10-25T20:13:07.854Z,83.32
2022-10-25T20:15:31.732Z,83.42
2022-10-25T20:17:54.554Z,83.39
2022-10-25T20:20:17.328Z,83.47
2022-10-25T20:22:39.948Z,83.53
2022-10-25T20:25:02.764Z,83.65
2022-10-25T20:27:25.544Z,82.63
2022-10-25T20:29:48.221Z,81.75
2022-10-25T20:32:12.669Z,80.78
2022-10-25T20:34:37.435Z,81.23
2022-10-25T20:37:00.180Z,82.55
2022-10-25T20:39:23.015Z,82.82
2022-10-25T20:41:46.044Z,81.84
2022-10-25T20:44:09.642Z,81.70
2022-10-25T20:46:33.457Z,82.19
2022-10-25T20:48:58.092Z,82.52
2022-10-25T20:51:21.310Z,83.09
2022-10-25T20:53:45.863Z,83.15
2022-10-25T20:56:08.512Z,83.46
2022-10-25T20:58:31.391Z,83.32
2022-10-25T21:00:56.357Z,83.27
2022-10-25T21:03:18.912Z,84.63
2022-10-25T21:05:45.359Z,86.53
2022-10-25T21:08:08.615Z,88.07
2022-10-25T21:10:31.264Z,88.36
2022-10-25T21:12:53.917Z,88.03
2022-10-25T21:15:16.765Z,87.37
2022-10-25T21:17:39.527Z,86.80
2022-10-25T21:20:02.097Z,86.34
2022-10-25T21:22:24.762Z,83.59
2022-10-25T21:24:47.365Z,83.40
2022-10-25T21:27:10.521Z,83.72
2022-10-25T21:29:33.170Z,83.69
2022-10-25T21:31:55.790Z,85.12
2022-10-25T21:36:45.853Z,85.43
2022-10-25T21:39:08.388Z,85.59
2022-10-25T21:41:31.088Z,83.70
2022-10-25T21:43:54.434Z,83.42
2022-10-25T21:46:18.494Z,83.98
2022-10-25T21:48:42.005Z,83.92
2022-10-25T21:51:05.317Z,83.76
2022-10-25T21:53:29.043Z,83.76
2022-10-25T21:55:51.632Z,83.97
2022-10-25T21:58:14.218Z,84.24
2022-10-25T22:00:36.873Z,85.54
2022-10-25T22:02:59.465Z,87.16
2022-10-25T22:05:22.218Z,88.16
2022-10-25T22:07:44.900Z,88.63
2022-10-25T22:10:07.834Z,88.44
2022-10-25T22:12:30.387Z,86.60
2022-10-25T22:14:54.202Z,85.75
2022-10-25T22:17:22.565Z,85.50
2022-10-25T22:19:46.083Z,86.26
2022-10-25T22:22:08.692Z,85.88
2022-10-25T22:24:31.232Z,85.83
2022-10-25T22:26:53.890Z,85.04
2022-10-25T22:29:16.509Z,85.61
2022-10-25T22:31:39.515Z,86.58
2022-10-25T22:34:04.735Z,86.84
2022-10-25T22:36:29.408Z,86.13
2022-10-25T22:38:52.273Z,86.21
2022-10-25T22:41:20.016Z,86.08
2022-10-25T22:43:43.746Z,85.26
2022-10-25T22:46:08.649Z,85.79
2022-10-25T22:48:32.964Z,85.56
2022-10-25T22:50:55.443Z,85.86
2022-10-25T22:53:18.796Z,86.07
2022-10-25T22:55:41.505Z,85.90
2022-10-25T22:58:04.571Z,85.75
2022-10-25T23:00:27.202Z,85.89
2022-10-25T23:02:50.049Z,86.39
2022-10-25T23:05:13.067Z,85.97
2022-10-25T23:07:35.645Z,86.05
2022-10-25T23:09:58.178Z,86.20
2022-10-25T23:12:20.743Z,86.41
2022-10-25T23:14:43.341Z,86.46
2022-10-25T23:17:05.910Z,86.57
2022-10-25T23:19:28.533Z,87.01
2022-10-25T23:21:51.124Z,87.68
2022-10-25T23:24:13.726Z,87.97
2022-10-25T23:26:36.635Z,87.60
2022-10-25T23:29:00.410Z,87.13
2022-10-25T23:31:24.317Z,87.06
2022-10-25T23:33:53.984Z,87.12
2022-10-25T23:36:22.029Z,88.14
2022-10-25T23:38:44.975Z,88.37
2022-10-25T23:41:07.557Z,89.78
2022-10-25T23:43:30.553Z,89.98
2022-10-25T23:45:53.203Z,90.11
2022-10-25T23:48:15.802Z,89.89
2022-10-25T23:50:38.291Z,89.63
2022-10-25T23:53:00.927Z,89.78
2022-10-25T23:55:23.588Z,89.92
2022-10-25T23:57:46.551Z,90.08
